sensor_id;sensor_type;location;lat;lon;timestamp;temperature;humidity
5176;DHT22;2607;50.934;6.934;2023-09-18T00:00:47;21.90;99.90
5176;DHT22;2607;50.934;6.934;2023-09-18T00:03:20;21.90;99.90
5176;DHT22;2607;50.934;6.934;2023-09-18T00:05:49;21.80;99.90
5176;DHT22;2607;50.934;6.934;2023-09-18T00:08:15;21.80;99.90
5176;DHT22;2607;50.934;6.934;2023-09-18T00:10:41;21.80;99.90
5176;DHT22;2607;50.934;6.934;2023-09-18T00:13:07;21.80;99.90
5176;DHT22;2607;50.934;6.934;2023-09-18T00:15:33;21.80;99.90
5176;DHT22;2607;50.934;6.934;2023-09-18T00:17:58;21.80;99.90
5176;DHT22;2607;50.934;6.934;2023-09-18T00:20:24;21.80;99.90
5176;DHT22;2607;50.934;6.934;2023-09-18T00:22:54;21.80;99.90
5176;DHT22;2607;50.934;6.934;2023-09-18T00:25:20;21.80;99.90
5176;DHT22;2607;50.934;6.934;2023-09-18T00:27:46;21.70;99.90
5176;DHT22;2607;50.934;6.934;2023-09-18T00:30:11;21.80;99.90
5176;DHT22;2607;50.934;6.934;2023-09-18T00:32:37;21.70;99.90
5176;DHT22;2607;50.934;6.934;2023-09-18T00:35:03;21.70;99.90
5176;DHT22;2607;50.934;6.934;2023-09-18T00:37:29;21.70;99.90
5176;DHT22;2607;50.934;6.934;2023-09-18T00:39:54;21.70;99.90
5176;DHT22;2607;50.934;6.934;2023-09-18T00:42:20;21.70;99.90
5176;DHT22;2607;50.934;6.934;2023-09-18T00:44:48;21.70;99.90
5176;DHT22;2607;50.934;6.934;2023-09-18T00:47:14;21.70;99.90
5176;DHT22;2607;50.934;6.934;2023-09-18T00:49:43;21.60;99.90
5176;DHT22;2607;50.934;6.934;2023-09-18T00:52:10;21.60;99.90
5176;DHT22;2607;50.934;6.934;2023-09-18T00:54:37;21.60;99.90
5176;DHT22;2607;50.934;6.934;2023-09-18T00:57:03;21.60;99.90
5176;DHT22;2607;50.934;6.934;2023-09-18T00:59:29;21.60;99.90
5176;DHT22;2607;50.934;6.934;2023-09-18T01:01:55;21.60;99.90
5176;DHT22;2607;50.934;6.934;2023-09-18T01:04:21;21.60;99.90
5176;DHT22;2607;50.934;6.934;2023-09-18T01:06:47;21.60;99.90
5176;DHT22;2607;50.934;6.934;2023-09-18T01:09:18;21.60;99.90
5176;DHT22;2607;50.934;6.934;2023-09-18T01:17:24;21.50;99.90
5176;DHT22;2607;50.934;6.934;2023-09-18T01:19:50;21.50;99.90
5176;DHT22;2607;50.934;6.934;2023-09-18T01:22:17;21.50;99.90
5176;DHT22;2607;50.934;6.934;2023-09-18T01:24:44;21.50;99.90
5176;DHT22;2607;50.934;6.934;2023-09-18T01:27:11;21.50;99.90
5176;DHT22;2607;50.934;6.934;2023-09-18T01:29:46;21.50;99.90
5176;DHT22;2607;50.934;6.934;2023-09-18T01:32:12;21.50;99.90
5176;DHT22;2607;50.934;6.934;2023-09-18T01:34:42;21.50;99.90
5176;DHT22;2607;50.934;6.934;2023-09-18T01:37:11;21.50;99.90
5176;DHT22;2607;50.934;6.934;2023-09-18T01:39:38;21.40;99.90
5176;DHT22;2607;50.934;6.934;2023-09-18T01:42:05;21.40;99.90
5176;DHT22;2607;50.934;6.934;2023-09-18T01:44:32;21.40;99.90
5176;DHT22;2607;50.934;6.934;2023-09-18T01:46:59;21.40;99.90
5176;DHT22;2607;50.934;6.934;2023-09-18T01:49:33;21.40;99.90
5176;DHT22;2607;50.934;6.934;2023-09-18T01:52:00;21.40;99.90
5176;DHT22;2607;50.934;6.934;2023-09-18T01:54:26;21.40;99.90
5176;DHT22;2607;50.934;6.934;2023-09-18T01:56:52;21.40;99.90
5176;DHT22;2607;50.934;6.934;2023-09-18T01:59:22;21.40;99.90
5176;DHT22;2607;50.934;6.934;2023-09-18T02:01:48;21.40;99.90
5176;DHT22;2607;50.934;6.934;2023-09-18T02:04:14;21.40;99.90
5176;DHT22;2607;50.934;6.934;2023-09-18T02:06:40;21.40;99.90
5176;DHT22;2607;50.934;6.934;2023-09-18T02:09:06;21.40;99.90
5176;DHT22;2607;50.934;6.934;2023-09-18T02:11:42;21.40;99.90
5176;DHT22;2607;50.934;6.934;2023-09-18T02:14:09;21.40;99.90
5176;DHT22;2607;50.934;6.934;2023-09-18T02:16:36;21.40;99.90
5176;DHT22;2607;50.934;6.934;2023-09-18T02:19:03;21.40;99.90
5176;DHT22;2607;50.934;6.934;2023-09-18T02:21:29;21.40;99.90
5176;DHT22;2607;50.934;6.934;2023-09-18T02:23:55;21.40;99.90
5176;DHT22;2607;50.934;6.934;2023-09-18T02:26:22;21.50;99.90
5176;DHT22;2607;50.934;6.934;2023-09-18T02:28:48;21.50;99.90
5176;DHT22;2607;50.934;6.934;2023-09-18T02:31:14;21.50;99.90
5176;DHT22;2607;50.934;6.934;2023-09-18T02:33:40;21.50;99.90
5176;DHT22;2607;50.934;6.934;2023-09-18T02:36:06;21.40;99.90
5176;DHT22;2607;50.934;6.934;2023-09-18T02:38:32;21.50;99.90
5176;DHT22;2607;50.934;6.934;2023-09-18T02:40:58;21.50;99.90
5176;DHT22;2607;50.934;6.934;2023-09-18T02:43:24;21.40;99.90
5176;DHT22;2607;50.934;6.934;2023-09-18T02:45:50;21.40;99.90
5176;DHT22;2607;50.934;6.934;2023-09-18T02:48:16;21.40;99.90
5176;DHT22;2607;50.934;6.934;2023-09-18T02:50:42;21.40;99.90
5176;DHT22;2607;50.934;6.934;2023-09-18T02:53:16;21.40;99.90
5176;DHT22;2607;50.934;6.934;2023-09-18T02:55:42;21.30;99.90
5176;DHT22;2607;50.934;6.934;2023-09-18T02:58:08;21.30;99.90
5176;DHT22;2607;50.934;6.934;2023-09-18T03:00:41;21.30;99.90
5176;DHT22;2607;50.934;6.934;2023-09-18T03:03:07;21.30;99.90
5176;DHT22;2607;50.934;6.934;2023-09-18T03:05:33;21.30;99.90
5176;DHT22;2607;50.934;6.934;2023-09-18T03:07:58;21.20;99.90
5176;DHT22;2607;50.934;6.934;2023-09-18T03:10:24;21.20;99.90
5176;DHT22;2607;50.934;6.934;2023-09-18T03:12:49;21.20;99.90
5176;DHT22;2607;50.934;6.934;2023-09-18T03:15:15;21.20;99.90
5176;DHT22;2607;50.934;6.934;2023-09-18T03:17:40;21.20;99.90
5176;DHT22;2607;50.934;6.934;2023-09-18T03:20:08;21.10;99.90
5176;DHT22;2607;50.934;6.934;2023-09-18T03:22:34;21.10;99.90
5176;DHT22;2607;50.934;6.934;2023-09-18T03:25:00;21.10;99.90
5176;DHT22;2607;50.934;6.934;2023-09-18T03:27:25;21.10;99.90
5176;DHT22;2607;50.934;6.934;2023-09-18T03:29:54;21.10;99.90
5176;DHT22;2607;50.934;6.934;2023-09-18T03:32:20;21.00;99.90
5176;DHT22;2607;50.934;6.934;2023-09-18T03:34:46;21.00;99.90
5176;DHT22;2607;50.934;6.934;2023-09-18T03:37:11;21.00;99.90
5176;DHT22;2607;50.934;6.934;2023-09-18T03:39:37;21.00;99.90
5176;DHT22;2607;50.934;6.934;2023-09-18T03:42:03;21.00;99.90
5176;DHT22;2607;50.934;6.934;2023-09-18T03:44:28;21.00;99.90
5176;DHT22;2607;50.934;6.934;2023-09-18T03:46:54;21.00;99.90
5176;DHT22;2607;50.934;6.934;2023-09-18T03:49:20;20.90;99.90
5176;DHT22;2607;50.934;6.934;2023-09-18T03:51:45;20.90;99.90
5176;DHT22;2607;50.934;6.934;2023-09-18T03:54:11;20.90;99.90
5176;DHT22;2607;50.934;6.934;2023-09-18T03:56:36;20.90;99.90
5176;DHT22;2607;50.934;6.934;2023-09-18T03:59:02;20.90;99.90
5176;DHT22;2607;50.934;6.934;2023-09-18T04:01:30;20.90;99.90
5176;DHT22;2607;50.934;6.934;2023-09-18T04:03:56;20.90;99.90
5176;DHT22;2607;50.934;6.934;2023-09-18T04:06:21;20.90;99.90
5176;DHT22;2607;50.934;6.934;2023-09-18T04:08:49;20.90;99.90
5176;DHT22;2607;50.934;6.934;2023-09-18T04:11:15;20.90;99.90
5176;DHT22;2607;50.934;6.934;2023-09-18T04:13:40;20.90;99.90
5176;DHT22;2607;50.934;6.934;2023-09-18T04:16:06;20.90;99.90
5176;DHT22;2607;50.934;6.934;2023-09-18T04:18:33;20.90;99.90
5176;DHT22;2607;50.934;6.934;2023-09-18T04:20:58;20.90;99.90
5176;DHT22;2607;50.934;6.934;2023-09-18T04:23:26;20.90;99.90
5176;DHT22;2607;50.934;6.934;2023-09-18T04:25:52;20.80;99.90
5176;DHT22;2607;50.934;6.934;2023-09-18T04:28:20;20.80;99.90
5176;DHT22;2607;50.934;6.934;2023-09-18T04:30:46;20.80;99.90
5176;DHT22;2607;50.934;6.934;2023-09-18T04:33:16;20.80;99.90
5176;DHT22;2607;50.934;6.934;2023-09-18T04:35:42;20.80;99.90
5176;DHT22;2607;50.934;6.934;2023-09-18T04:38:08;20.80;99.90
5176;DHT22;2607;50.934;6.934;2023-09-18T04:40:36;20.80;99.90
5176;DHT22;2607;50.934;6.934;2023-09-18T04:43:02;20.80;99.90
5176;DHT22;2607;50.934;6.934;2023-09-18T04:45:30;20.70;99.90
5176;DHT22;2607;50.934;6.934;2023-09-18T04:47:55;20.70;99.90
5176;DHT22;2607;50.934;6.934;2023-09-18T04:50:22;20.70;99.90
5176;DHT22;2607;50.934;6.934;2023-09-18T04:52:47;20.70;99.90
5176;DHT22;2607;50.934;6.934;2023-09-18T04:55:14;20.70;99.90
5176;DHT22;2607;50.934;6.934;2023-09-18T04:57:39;20.70;99.90
5176;DHT22;2607;50.934;6.934;2023-09-18T05:00:06;20.70;99.90
5176;DHT22;2607;50.934;6.934;2023-09-18T05:02:38;20.70;99.90
5176;DHT22;2607;50.934;6.934;2023-09-18T05:05:03;20.70;99.90
5176;DHT22;2607;50.934;6.934;2023-09-18T05:07:29;20.70;99.90
5176;DHT22;2607;50.934;6.934;2023-09-18T05:09:55;20.70;99.90
5176;DHT22;2607;50.934;6.934;2023-09-18T05:12:20;20.70;99.90
5176;DHT22;2607;50.934;6.934;2023-09-18T05:14:47;20.70;99.90
5176;DHT22;2607;50.934;6.934;2023-09-18T05:17:15;20.70;99.90
5176;DHT22;2607;50.934;6.934;2023-09-18T05:19:41;20.70;99.90
5176;DHT22;2607;50.934;6.934;2023-09-18T05:22:07;20.60;99.90
5176;DHT22;2607;50.934;6.934;2023-09-18T05:24:33;20.60;99.90
5176;DHT22;2607;50.934;6.934;2023-09-18T05:26:59;20.70;99.90
5176;DHT22;2607;50.934;6.934;2023-09-18T05:29:24;20.70;99.90
5176;DHT22;2607;50.934;6.934;2023-09-18T05:31:50;20.70;99.90
5176;DHT22;2607;50.934;6.934;2023-09-18T05:34:15;20.70;99.90
5176;DHT22;2607;50.934;6.934;2023-09-18T05:36:41;20.70;99.90
5176;DHT22;2607;50.934;6.934;2023-09-18T05:39:06;20.60;99.90
5176;DHT22;2607;50.934;6.934;2023-09-18T05:41:37;20.60;99.90
5176;DHT22;2607;50.934;6.934;2023-09-18T05:44:02;20.60;99.90
5176;DHT22;2607;50.934;6.934;2023-09-18T05:46:30;20.70;99.90
5176;DHT22;2607;50.934;6.934;2023-09-18T05:48:56;20.60;99.90
5176;DHT22;2607;50.934;6.934;2023-09-18T05:51:22;20.70;99.90
5176;DHT22;2607;50.934;6.934;2023-09-18T05:53:49;20.60;99.90
5176;DHT22;2607;50.934;6.934;2023-09-18T05:56:14;20.70;99.90
5176;DHT22;2607;50.934;6.934;2023-09-18T05:58:42;20.70;99.90
5176;DHT22;2607;50.934;6.934;2023-09-18T06:01:07;20.70;99.90
5176;DHT22;2607;50.934;6.934;2023-09-18T06:03:33;20.70;99.90
5176;DHT22;2607;50.934;6.934;2023-09-18T06:06:02;20.70;99.90
5176;DHT22;2607;50.934;6.934;2023-09-18T06:08:28;20.60;99.90
5176;DHT22;2607;50.934;6.934;2023-09-18T06:10:54;20.70;99.90
5176;DHT22;2607;50.934;6.934;2023-09-18T06:13:20;20.70;99.90
5176;DHT22;2607;50.934;6.934;2023-09-18T06:15:46;20.60;99.90
5176;DHT22;2607;50.934;6.934;2023-09-18T06:18:12;20.70;99.90
5176;DHT22;2607;50.934;6.934;2023-09-18T06:20:39;20.70;99.90
5176;DHT22;2607;50.934;6.934;2023-09-18T06:23:05;20.70;99.90
5176;DHT22;2607;50.934;6.934;2023-09-18T06:25:30;20.70;99.90
5176;DHT22;2607;50.934;6.934;2023-09-18T06:27:57;20.60;99.90
5176;DHT22;2607;50.934;6.934;2023-09-18T06:30:22;20.70;99.90
5176;DHT22;2607;50.934;6.934;2023-09-18T06:32:48;20.70;99.90
5176;DHT22;2607;50.934;6.934;2023-09-18T06:35:14;20.70;99.90
5176;DHT22;2607;50.934;6.934;2023-09-18T06:37:39;20.70;99.90
5176;DHT22;2607;50.934;6.934;2023-09-18T06:40:05;20.70;99.90
5176;DHT22;2607;50.934;6.934;2023-09-18T06:42:32;20.80;99.90
5176;DHT22;2607;50.934;6.934;2023-09-18T06:44:58;20.80;99.90
5176;DHT22;2607;50.934;6.934;2023-09-18T06:47:23;20.80;99.90
5176;DHT22;2607;50.934;6.934;2023-09-18T06:49:50;20.80;99.90
5176;DHT22;2607;50.934;6.934;2023-09-18T06:52:16;20.80;99.90
5176;DHT22;2607;50.934;6.934;2023-09-18T06:54:42;20.80;99.90
5176;DHT22;2607;50.934;6.934;2023-09-18T06:57:09;20.90;99.90
5176;DHT22;2607;50.934;6.934;2023-09-18T06:59:35;20.90;99.90
5176;DHT22;2607;50.934;6.934;2023-09-18T07:02:01;20.90;99.90
5176;DHT22;2607;50.934;6.934;2023-09-18T07:04:26;20.90;99.90
5176;DHT22;2607;50.934;6.934;2023-09-18T07:06:52;21.00;99.90
5176;DHT22;2607;50.934;6.934;2023-09-18T07:09:19;21.00;99.90
5176;DHT22;2607;50.934;6.934;2023-09-18T07:11:45;21.00;99.90
5176;DHT22;2607;50.934;6.934;2023-09-18T07:14:10;21.10;99.90
5176;DHT22;2607;50.934;6.934;2023-09-18T07:16:36;21.10;99.90
5176;DHT22;2607;50.934;6.934;2023-09-18T07:19:01;21.10;99.90
5176;DHT22;2607;50.934;6.934;2023-09-18T07:21:30;21.20;99.90
5176;DHT22;2607;50.934;6.934;2023-09-18T07:23:56;21.20;99.90
5176;DHT22;2607;50.934;6.934;2023-09-18T07:26:21;21.30;99.90
5176;DHT22;2607;50.934;6.934;2023-09-18T07:28:47;21.40;99.90
5176;DHT22;2607;50.934;6.934;2023-09-18T07:31:13;21.30;99.90
5176;DHT22;2607;50.934;6.934;2023-09-18T07:33:40;21.40;99.90
5176;DHT22;2607;50.934;6.934;2023-09-18T07:36:06;21.40;99.90
5176;DHT22;2607;50.934;6.934;2023-09-18T07:38:32;21.40;99.90
5176;DHT22;2607;50.934;6.934;2023-09-18T07:40:57;21.40;99.90
5176;DHT22;2607;50.934;6.934;2023-09-18T07:43:24;21.40;99.90
5176;DHT22;2607;50.934;6.934;2023-09-18T07:45:50;21.40;99.90
5176;DHT22;2607;50.934;6.934;2023-09-18T07:48:16;21.40;99.90
5176;DHT22;2607;50.934;6.934;2023-09-18T07:50:45;21.50;99.90
5176;DHT22;2607;50.934;6.934;2023-09-18T07:53:11;21.50;99.90
5176;DHT22;2607;50.934;6.934;2023-09-18T07:55:37;21.50;99.90
5176;DHT22;2607;50.934;6.934;2023-09-18T07:58:04;21.50;99.90
5176;DHT22;2607;50.934;6.934;2023-09-18T08:00:30;21.50;99.90
5176;DHT22;2607;50.934;6.934;2023-09-18T08:02:56;21.50;99.90
5176;DHT22;2607;50.934;6.934;2023-09-18T08:05:26;21.50;99.90
5176;DHT22;2607;50.934;6.934;2023-09-18T08:07:56;21.50;99.90
5176;DHT22;2607;50.934;6.934;2023-09-18T08:10:22;21.50;99.90
5176;DHT22;2607;50.934;6.934;2023-09-18T08:12:48;21.50;99.90
5176;DHT22;2607;50.934;6.934;2023-09-18T08:15:15;21.50;99.90
5176;DHT22;2607;50.934;6.934;2023-09-18T08:17:40;21.50;99.90
5176;DHT22;2607;50.934;6.934;2023-09-18T08:20:08;21.50;99.90
5176;DHT22;2607;50.934;6.934;2023-09-18T08:22:38;21.60;99.90
5176;DHT22;2607;50.934;6.934;2023-09-18T08:25:05;21.60;99.90
5176;DHT22;2607;50.934;6.934;2023-09-18T08:27:33;21.60;99.90
5176;DHT22;2607;50.934;6.934;2023-09-18T08:29:58;21.70;99.90
5176;DHT22;2607;50.934;6.934;2023-09-18T08:32:24;21.70;99.90
5176;DHT22;2607;50.934;6.934;2023-09-18T08:34:50;21.70;99.90
5176;DHT22;2607;50.934;6.934;2023-09-18T08:37:15;21.80;99.90
5176;DHT22;2607;50.934;6.934;2023-09-18T08:39:40;21.80;99.90
5176;DHT22;2607;50.934;6.934;2023-09-18T08:42:09;21.80;99.90
5176;DHT22;2607;50.934;6.934;2023-09-18T08:44:38;21.80;99.90
5176;DHT22;2607;50.934;6.934;2023-09-18T08:47:06;21.80;99.90
5176;DHT22;2607;50.934;6.934;2023-09-18T08:49:32;21.90;99.90
5176;DHT22;2607;50.934;6.934;2023-09-18T08:51:59;21.90;99.90
5176;DHT22;2607;50.934;6.934;2023-09-18T08:54:25;21.90;99.90
5176;DHT22;2607;50.934;6.934;2023-09-18T08:56:51;21.90;99.90
5176;DHT22;2607;50.934;6.934;2023-09-18T08:59:17;22.00;99.90
5176;DHT22;2607;50.934;6.934;2023-09-18T09:01:44;22.00;99.90
5176;DHT22;2607;50.934;6.934;2023-09-18T09:04:10;22.10;99.90
5176;DHT22;2607;50.934;6.934;2023-09-18T09:06:36;22.10;99.90
5176;DHT22;2607;50.934;6.934;2023-09-18T09:09:02;22.20;99.90
5176;DHT22;2607;50.934;6.934;2023-09-18T09:11:28;22.20;99.90
5176;DHT22;2607;50.934;6.934;2023-09-18T09:16:35;22.30;99.90
5176;DHT22;2607;50.934;6.934;2023-09-18T09:19:00;22.30;99.90
5176;DHT22;2607;50.934;6.934;2023-09-18T09:21:41;22.30;99.90
5176;DHT22;2607;50.934;6.934;2023-09-18T09:24:09;22.30;99.90
5176;DHT22;2607;50.934;6.934;2023-09-18T09:26:39;22.30;99.90
5176;DHT22;2607;50.934;6.934;2023-09-18T09:29:19;22.30;99.90
5176;DHT22;2607;50.934;6.934;2023-09-18T09:31:45;22.40;99.90
5176;DHT22;2607;50.934;6.934;2023-09-18T09:34:12;22.40;99.90
5176;DHT22;2607;50.934;6.934;2023-09-18T09:36:54;22.40;99.90
5176;DHT22;2607;50.934;6.934;2023-09-18T09:39:21;22.50;99.90
5176;DHT22;2607;50.934;6.934;2023-09-18T09:41:47;22.50;99.90
5176;DHT22;2607;50.934;6.934;2023-09-18T09:44:14;22.50;99.90
5176;DHT22;2607;50.934;6.934;2023-09-18T09:46:46;22.60;99.90
5176;DHT22;2607;50.934;6.934;2023-09-18T09:49:13;22.70;99.90
5176;DHT22;2607;50.934;6.934;2023-09-18T09:51:41;22.70;99.90
5176;DHT22;2607;50.934;6.934;2023-09-18T09:54:07;22.80;99.90
5176;DHT22;2607;50.934;6.934;2023-09-18T09:56:43;22.80;99.90
5176;DHT22;2607;50.934;6.934;2023-09-18T09:59:10;22.80;99.90
5176;DHT22;2607;50.934;6.934;2023-09-18T10:01:37;22.90;99.90
5176;DHT22;2607;50.934;6.934;2023-09-18T10:04:05;22.90;99.90
5176;DHT22;2607;50.934;6.934;2023-09-18T10:06:34;23.00;99.90
5176;DHT22;2607;50.934;6.934;2023-09-18T10:09:03;23.00;99.90
5176;DHT22;2607;50.934;6.934;2023-09-18T10:11:33;23.00;99.90
5176;DHT22;2607;50.934;6.934;2023-09-18T10:16:35;23.00;99.90
5176;DHT22;2607;50.934;6.934;2023-09-18T10:24:39;23.10;99.90
5176;DHT22;2607;50.934;6.934;2023-09-18T10:27:06;23.20;99.90
5176;DHT22;2607;50.934;6.934;2023-09-18T10:29:35;23.10;99.90
5176;DHT22;2607;50.934;6.934;2023-09-18T10:32:03;23.20;99.90
5176;DHT22;2607;50.934;6.934;2023-09-18T10:34:30;23.20;99.90
5176;DHT22;2607;50.934;6.934;2023-09-18T10:37:00;23.20;99.90
5176;DHT22;2607;50.934;6.934;2023-09-18T10:39:26;23.20;99.90
5176;DHT22;2607;50.934;6.934;2023-09-18T10:41:54;23.30;99.90
5176;DHT22;2607;50.934;6.934;2023-09-18T10:44:21;23.40;99.90
5176;DHT22;2607;50.934;6.934;2023-09-18T10:46:49;23.50;99.90
5176;DHT22;2607;50.934;6.934;2023-09-18T10:49:15;23.50;99.90
5176;DHT22;2607;50.934;6.934;2023-09-18T10:51:42;23.50;99.90
5176;DHT22;2607;50.934;6.934;2023-09-18T10:54:09;23.60;99.90
5176;DHT22;2607;50.934;6.934;2023-09-18T10:56:35;23.60;99.90
5176;DHT22;2607;50.934;6.934;2023-09-18T10:59:03;23.70;99.90
5176;DHT22;2607;50.934;6.934;2023-09-18T11:01:30;23.80;99.90
5176;DHT22;2607;50.934;6.934;2023-09-18T11:04:18;23.90;99.90
5176;DHT22;2607;50.934;6.934;2023-09-18T11:09:30;24.00;99.90
5176;DHT22;2607;50.934;6.934;2023-09-18T11:14:40;24.10;99.90
5176;DHT22;2607;50.934;6.934;2023-09-18T11:17:05;24.20;99.90
5176;DHT22;2607;50.934;6.934;2023-09-18T11:19:31;24.30;99.90
5176;DHT22;2607;50.934;6.934;2023-09-18T11:22:07;24.30;99.90
5176;DHT22;2607;50.934;6.934;2023-09-18T11:24:33;24.40;99.90
5176;DHT22;2607;50.934;6.934;2023-09-18T11:26:59;24.50;99.70
5176;DHT22;2607;50.934;6.934;2023-09-18T11:29:26;24.50;99.60
5176;DHT22;2607;50.934;6.934;2023-09-18T11:31:55;24.60;99.20
5176;DHT22;2607;50.934;6.934;2023-09-18T11:34:29;24.70;99.00
5176;DHT22;2607;50.934;6.934;2023-09-18T11:37:01;24.80;98.70
5176;DHT22;2607;50.934;6.934;2023-09-18T11:39:39;24.90;98.30
5176;DHT22;2607;50.934;6.934;2023-09-18T11:42:13;25.00;98.30
5176;DHT22;2607;50.934;6.934;2023-09-18T11:44:39;25.10;98.10
5176;DHT22;2607;50.934;6.934;2023-09-18T11:47:12;25.10;97.70
5176;DHT22;2607;50.934;6.934;2023-09-18T11:49:50;25.10;97.90
5176;DHT22;2607;50.934;6.934;2023-09-18T11:52:20;25.20;97.60
5176;DHT22;2607;50.934;6.934;2023-09-18T11:54:47;25.20;97.50
5176;DHT22;2607;50.934;6.934;2023-09-18T11:57:13;25.30;97.30
5176;DHT22;2607;50.934;6.934;2023-09-18T11:59:41;25.30;96.80
5176;DHT22;2607;50.934;6.934;2023-09-18T12:02:28;25.30;96.80
5176;DHT22;2607;50.934;6.934;2023-09-18T12:04:54;25.30;96.80
5176;DHT22;2607;50.934;6.934;2023-09-18T12:07:20;25.20;96.40
5176;DHT22;2607;50.934;6.934;2023-09-18T12:09:46;25.30;96.40
5176;DHT22;2607;50.934;6.934;2023-09-18T12:12:11;25.20;96.00
5176;DHT22;2607;50.934;6.934;2023-09-18T12:14:40;25.20;96.00
5176;DHT22;2607;50.934;6.934;2023-09-18T12:17:08;25.30;95.90
5176;DHT22;2607;50.934;6.934;2023-09-18T12:19:34;25.30;95.50
5176;DHT22;2607;50.934;6.934;2023-09-18T12:22:01;25.40;95.10
5176;DHT22;2607;50.934;6.934;2023-09-18T12:24:27;25.50;95.10
5176;DHT22;2607;50.934;6.934;2023-09-18T12:26:53;25.50;94.90
5176;DHT22;2607;50.934;6.934;2023-09-18T12:29:20;25.60;94.70
5176;DHT22;2607;50.934;6.934;2023-09-18T12:31:46;25.70;94.60
5176;DHT22;2607;50.934;6.934;2023-09-18T12:34:20;25.70;94.50
5176;DHT22;2607;50.934;6.934;2023-09-18T12:36:47;25.70;94.00
5176;DHT22;2607;50.934;6.934;2023-09-18T12:39:13;25.70;94.00
5176;DHT22;2607;50.934;6.934;2023-09-18T12:41:44;25.70;94.00
5176;DHT22;2607;50.934;6.934;2023-09-18T12:44:11;25.70;94.10
5176;DHT22;2607;50.934;6.934;2023-09-18T12:46:38;25.80;93.90
5176;DHT22;2607;50.934;6.934;2023-09-18T12:49:23;25.70;93.60
5176;DHT22;2607;50.934;6.934;2023-09-18T12:51:59;25.80;93.70
5176;DHT22;2607;50.934;6.934;2023-09-18T12:54:40;25.80;93.80
5176;DHT22;2607;50.934;6.934;2023-09-18T12:57:07;25.80;93.90
5176;DHT22;2607;50.934;6.934;2023-09-18T12:59:35;25.80;93.80
5176;DHT22;2607;50.934;6.934;2023-09-18T13:02:05;25.70;93.30
5176;DHT22;2607;50.934;6.934;2023-09-18T13:04:32;25.70;92.90
5176;DHT22;2607;50.934;6.934;2023-09-18T13:07:10;25.70;92.80
5176;DHT22;2607;50.934;6.934;2023-09-18T13:09:37;25.70;92.90
5176;DHT22;2607;50.934;6.934;2023-09-18T13:12:03;25.60;93.00
5176;DHT22;2607;50.934;6.934;2023-09-18T13:14:29;25.60;92.50
5176;DHT22;2607;50.934;6.934;2023-09-18T13:17:00;25.60;91.90
5176;DHT22;2607;50.934;6.934;2023-09-18T13:19:29;25.50;91.80
5176;DHT22;2607;50.934;6.934;2023-09-18T13:21:55;25.50;91.80
5176;DHT22;2607;50.934;6.934;2023-09-18T13:24:28;25.50;91.30
5176;DHT22;2607;50.934;6.934;2023-09-18T13:26:54;25.50;91.70
5176;DHT22;2607;50.934;6.934;2023-09-18T13:29:20;25.50;91.60
5176;DHT22;2607;50.934;6.934;2023-09-18T13:31:46;25.50;91.50
5176;DHT22;2607;50.934;6.934;2023-09-18T13:34:11;25.50;91.50
5176;DHT22;2607;50.934;6.934;2023-09-18T13:36:37;25.50;91.40
5176;DHT22;2607;50.934;6.934;2023-09-18T13:39:03;25.50;91.30
5176;DHT22;2607;50.934;6.934;2023-09-18T13:41:29;25.50;91.20
5176;DHT22;2607;50.934;6.934;2023-09-18T13:43:56;25.50;91.30
5176;DHT22;2607;50.934;6.934;2023-09-18T13:46:22;25.40;91.20
5176;DHT22;2607;50.934;6.934;2023-09-18T13:48:49;25.40;91.20
5176;DHT22;2607;50.934;6.934;2023-09-18T13:51:14;25.40;91.60
5176;DHT22;2607;50.934;6.934;2023-09-18T13:53:40;25.30;91.60
5176;DHT22;2607;50.934;6.934;2023-09-18T13:56:07;25.30;91.30
5176;DHT22;2607;50.934;6.934;2023-09-18T13:58:32;25.40;91.20
5176;DHT22;2607;50.934;6.934;2023-09-18T14:00:59;25.40;91.20
5176;DHT22;2607;50.934;6.934;2023-09-18T14:03:24;25.40;91.10
5176;DHT22;2607;50.934;6.934;2023-09-18T14:05:50;25.40;91.00
5176;DHT22;2607;50.934;6.934;2023-09-18T14:08:16;25.40;91.10
5176;DHT22;2607;50.934;6.934;2023-09-18T14:10:43;25.40;90.90
5176;DHT22;2607;50.934;6.934;2023-09-18T14:13:09;25.40;90.80
5176;DHT22;2607;50.934;6.934;2023-09-18T14:15:34;25.40;90.70
5176;DHT22;2607;50.934;6.934;2023-09-18T14:18:00;25.40;90.30
5176;DHT22;2607;50.934;6.934;2023-09-18T14:20:26;25.40;90.00
5176;DHT22;2607;50.934;6.934;2023-09-18T14:22:51;25.40;90.00
5176;DHT22;2607;50.934;6.934;2023-09-18T14:25:17;25.30;90.10
5176;DHT22;2607;50.934;6.934;2023-09-18T14:27:45;25.30;90.40
5176;DHT22;2607;50.934;6.934;2023-09-18T14:30:11;25.30;90.70
5176;DHT22;2607;50.934;6.934;2023-09-18T14:32:39;25.30;90.60
5176;DHT22;2607;50.934;6.934;2023-09-18T14:35:05;25.40;90.70
5176;DHT22;2607;50.934;6.934;2023-09-18T14:37:34;25.40;90.70
5176;DHT22;2607;50.934;6.934;2023-09-18T14:39:59;25.40;90.80
5176;DHT22;2607;50.934;6.934;2023-09-18T14:42:25;25.50;90.70
5176;DHT22;2607;50.934;6.934;2023-09-18T14:44:50;25.50;90.70
5176;DHT22;2607;50.934;6.934;2023-09-18T14:47:16;25.50;90.70
5176;DHT22;2607;50.934;6.934;2023-09-18T14:49:42;25.50;90.70
5176;DHT22;2607;50.934;6.934;2023-09-18T14:52:12;25.50;90.60
5176;DHT22;2607;50.934;6.934;2023-09-18T14:54:37;25.50;90.60
5176;DHT22;2607;50.934;6.934;2023-09-18T14:57:03;25.50;90.50
5176;DHT22;2607;50.934;6.934;2023-09-18T14:59:28;25.50;90.60
5176;DHT22;2607;50.934;6.934;2023-09-18T15:01:54;25.40;90.20
5176;DHT22;2607;50.934;6.934;2023-09-18T15:04:20;25.40;90.30
5176;DHT22;2607;50.934;6.934;2023-09-18T15:06:47;25.30;90.40
5176;DHT22;2607;50.934;6.934;2023-09-18T15:09:13;25.30;90.00
5176;DHT22;2607;50.934;6.934;2023-09-18T15:11:39;25.30;89.30
5176;DHT22;2607;50.934;6.934;2023-09-18T15:14:04;25.30;89.50
5176;DHT22;2607;50.934;6.934;2023-09-18T15:16:30;25.30;88.40
5176;DHT22;2607;50.934;6.934;2023-09-18T15:18:56;25.20;88.30
5176;DHT22;2607;50.934;6.934;2023-09-18T15:21:25;25.20;88.70
5176;DHT22;2607;50.934;6.934;2023-09-18T15:23:51;25.10;88.40
5176;DHT22;2607;50.934;6.934;2023-09-18T15:26:17;25.10;88.00
5176;DHT22;2607;50.934;6.934;2023-09-18T15:28:43;25.10;88.60
5176;DHT22;2607;50.934;6.934;2023-09-18T15:31:08;25.00;88.90
5176;DHT22;2607;50.934;6.934;2023-09-18T15:33:34;24.90;89.40
5176;DHT22;2607;50.934;6.934;2023-09-18T15:35:59;24.90;89.70
5176;DHT22;2607;50.934;6.934;2023-09-18T15:38:25;24.90;90.10
5176;DHT22;2607;50.934;6.934;2023-09-18T15:40:52;24.90;90.30
5176;DHT22;2607;50.934;6.934;2023-09-18T15:43:18;24.90;90.50
5176;DHT22;2607;50.934;6.934;2023-09-18T15:45:44;24.90;90.20
5176;DHT22;2607;50.934;6.934;2023-09-18T15:48:10;24.80;90.00
5176;DHT22;2607;50.934;6.934;2023-09-18T15:50:35;24.80;89.90
5176;DHT22;2607;50.934;6.934;2023-09-18T15:53:01;24.80;89.90
5176;DHT22;2607;50.934;6.934;2023-09-18T15:55:26;24.70;90.10
5176;DHT22;2607;50.934;6.934;2023-09-18T15:57:52;24.70;90.30
5176;DHT22;2607;50.934;6.934;2023-09-18T16:00:18;24.60;90.50
5176;DHT22;2607;50.934;6.934;2023-09-18T16:02:44;24.60;90.60
5176;DHT22;2607;50.934;6.934;2023-09-18T16:05:10;24.50;90.70
5176;DHT22;2607;50.934;6.934;2023-09-18T16:07:36;24.50;90.90
5176;DHT22;2607;50.934;6.934;2023-09-18T16:10:03;24.50;91.00
5176;DHT22;2607;50.934;6.934;2023-09-18T16:12:30;24.50;91.30
5176;DHT22;2607;50.934;6.934;2023-09-18T16:14:56;24.50;91.40
5176;DHT22;2607;50.934;6.934;2023-09-18T16:17:21;24.50;91.40
5176;DHT22;2607;50.934;6.934;2023-09-18T16:19:47;24.60;91.40
5176;DHT22;2607;50.934;6.934;2023-09-18T16:22:13;24.60;91.40